createdAt,value
2023-09-11T00:00:18.359Z,6.10
2023-09-11T00:03:04.521Z,6.70
2023-09-11T00:06:03.865Z,5.63
2023-09-11T00:08:50.826Z,5.75
2023-09-11T00:11:36.490Z,6.43
2023-09-11T00:14:22.476Z,6.80
2023-09-11T00:17:07.764Z,6.65
2023-09-11T00:19:54.312Z,6.55
2023-09-11T00:22:43.259Z,6.03
2023-09-11T00:25:30.020Z,6.10
2023-09-11T00:28:15.911Z,6.55
2023-09-11T00:31:01.500Z,6.05
2023-09-11T00:33:47.303Z,5.18
2023-09-11T00:36:32.609Z,5.95
2023-09-11T00:39:18.412Z,6.15
2023-09-11T00:42:04.023Z,6.03
2023-09-11T00:44:49.564Z,5.90
2023-09-11T00:47:35.811Z,6.47
2023-09-11T00:50:23.763Z,5.50
2023-09-11T00:53:09.634Z,5.15
2023-09-11T00:55:55.416Z,5.75
2023-09-11T00:58:42.244Z,5.47
2023-09-11T01:01:29.434Z,6.30
2023-09-11T01:04:15.115Z,6.13
2023-09-11T01:07:00.831Z,6.47
2023-09-11T01:09:46.607Z,6.28
2023-09-11T01:12:36.790Z,7.40
2023-09-11T01:15:22.603Z,6.50
2023-09-11T01:18:15.954Z,6.18
2023-09-11T01:21:21.970Z,6.40
2023-09-11T01:24:22.732Z,6.13
2023-09-11T01:27:22.570Z,5.82
2023-09-11T01:30:09.805Z,6.13
2023-09-11T01:32:56.121Z,7.03
2023-09-11T01:35:43.588Z,7.45
2023-09-11T01:38:32.390Z,7.07
2023-09-11T01:41:18.358Z,7.85
2023-09-11T01:44:13.658Z,8.48
2023-09-11T01:47:00.707Z,7.95
2023-09-11T01:49:48.422Z,7.53
2023-09-11T01:52:36.436Z,7.22
2023-09-11T01:55:22.136Z,6.90
2023-09-11T01:58:07.989Z,6.30
2023-09-11T02:00:53.257Z,7.00
2023-09-11T02:03:42.070Z,7.05
2023-09-11T02:06:27.914Z,6.90
2023-09-11T02:09:15.040Z,6.45
2023-09-11T02:12:01.121Z,6.20
2023-09-11T02:14:46.842Z,8.10
2023-09-11T02:17:32.422Z,7.60
2023-09-11T02:20:18.164Z,8.30
2023-09-11T02:23:04.144Z,8.82
2023-09-11T02:25:49.914Z,10.52
2023-09-11T02:28:35.193Z,9.68
2023-09-11T02:31:21.136Z,10.15
2023-09-11T02:34:06.762Z,10.48
2023-09-11T02:36:52.611Z,9.93
2023-09-11T02:39:40.031Z,8.68
2023-09-11T02:42:25.400Z,9.60
2023-09-11T02:45:11.374Z,9.63
2023-09-11T02:47:57.655Z,9.38
2023-09-11T02:50:43.458Z,9.73
2023-09-11T02:53:30.975Z,11.10
2023-09-11T02:56:16.655Z,9.57
2023-09-11T02:59:03.242Z,9.48
2023-09-11T03:01:49.049Z,10.20
2023-09-11T03:04:34.475Z,9.90
2023-09-11T03:07:20.044Z,10.38
2023-09-11T03:10:07.776Z,10.38
2023-09-11T03:12:53.707Z,10.82
2023-09-11T03:15:39.482Z,9.13
2023-09-11T03:18:25.361Z,9.73
2023-09-11T03:21:13.840Z,10.43
2023-09-11T03:24:00.749Z,8.63
2023-09-11T03:26:48.012Z,8.93
2023-09-11T03:29:33.792Z,8.93
2023-09-11T03:32:22.418Z,9.10
2023-09-11T03:35:08.696Z,9.35
2023-09-11T03:37:54.722Z,10.05
2023-09-11T03:40:40.755Z,10.75
2023-09-11T03:43:26.240Z,10.50
2023-09-11T03:46:15.254Z,9.02
2023-09-11T03:49:05.760Z,10.32
2023-09-11T03:51:53.225Z,9.68
2023-09-11T03:54:40.250Z,8.45
2023-09-11T03:57:29.737Z,9.57
2023-09-11T04:00:15.687Z,11.20
2023-09-11T04:03:05.136Z,13.00
2023-09-11T04:05:55.728Z,11.45
2023-09-11T04:08:41.413Z,12.07
2023-09-11T04:11:26.838Z,11.30
2023-09-11T04:14:12.355Z,13.93
2023-09-11T04:16:58.074Z,13.20
2023-09-11T04:19:46.613Z,12.10
2023-09-11T04:22:32.532Z,13.50
2023-09-11T04:25:18.072Z,13.13
2023-09-11T04:28:04.435Z,12.35
2023-09-11T04:30:50.207Z,10.95
2023-09-11T04:33:36.474Z,11.27
2023-09-11T04:36:22.081Z,15.00
2023-09-11T04:39:07.670Z,13.98
2023-09-11T04:41:53.595Z,14.35
2023-09-11T04:44:39.830Z,15.07
2023-09-11T04:47:25.995Z,12.75
2023-09-11T04:50:11.578Z,12.93
2023-09-11T04:52:57.433Z,12.25
2023-09-11T04:55:43.445Z,11.13
2023-09-11T04:58:29.572Z,11.25
2023-09-11T05:01:15.288Z,11.10
2023-09-11T05:04:04.523Z,10.85
2023-09-11T05:06:50.578Z,12.93
2023-09-11T05:09:41.491Z,12.48
2023-09-11T05:12:27.159Z,10.57
2023-09-11T05:15:14.173Z,9.88
2023-09-11T05:17:59.517Z,11.18
2023-09-11T05:20:46.181Z,11.75
2023-09-11T05:23:35.184Z,12.13
2023-09-11T05:26:22.348Z,11.07
2023-09-11T05:29:10.971Z,10.45
2023-09-11T05:31:57.506Z,11.60
2023-09-11T05:34:43.583Z,11.73
2023-09-11T05:37:28.933Z,12.65
2023-09-11T05:40:14.397Z,12.63
2023-09-11T05:43:00.160Z,12.55
2023-09-11T05:45:45.435Z,13.73
2023-09-11T05:48:31.728Z,13.35
2023-09-11T05:51:17.002Z,13.77
2023-09-11T05:54:05.253Z,12.88
2023-09-11T05:56:50.576Z,13.65
2023-09-11T05:59:35.871Z,12.93
2023-09-11T06:02:21.326Z,12.95
2023-09-11T06:05:08.282Z,12.85
2023-09-11T06:07:53.828Z,12.05
2023-09-11T06:10:39.395Z,11.25
2023-09-11T06:13:25.091Z,11.88
2023-09-11T06:16:10.655Z,11.30
2023-09-11T06:18:57.233Z,12.95
2023-09-11T06:21:48.339Z,11.10
2023-09-11T06:24:33.752Z,11.82
2023-09-11T06:27:20.073Z,12.00
2023-09-11T06:30:09.794Z,12.77
2023-09-11T06:32:55.597Z,12.02
2023-09-11T06:35:47.694Z,12.15
2023-09-11T06:38:36.057Z,9.93
2023-09-11T06:41:21.394Z,10.80
2023-09-11T06:44:06.838Z,10.88
2023-09-11T06:46:52.554Z,9.60
2023-09-11T06:49:38.194Z,10.00
2023-09-11T06:52:26.616Z,8.93
2023-09-11T06:55:15.188Z,10.82
2023-09-11T06:58:02.989Z,9.70
2023-09-11T07:00:48.461Z,9.63
2023-09-11T07:03:34.224Z,9.35
2023-09-11T07:06:21.912Z,11.95
2023-09-11T07:09:08.554Z,13.98
2023-09-11T07:11:54.406Z,11.18
2023-09-11T07:14:42.661Z,9.68
2023-09-11T07:17:28.406Z,11.80
2023-09-11T07:20:13.940Z,11.25
2023-09-11T07:22:59.703Z,10.32
2023-09-11T07:25:48.384Z,13.77
2023-09-11T07:28:35.315Z,12.68
2023-09-11T07:31:21.041Z,10.88
2023-09-11T07:34:06.341Z,11.15
2023-09-11T07:36:53.002Z,12.13
2023-09-11T07:39:38.542Z,11.70
2023-09-11T07:42:23.957Z,9.93
2023-09-11T07:45:10.740Z,10.23
2023-09-11T07:47:56.513Z,11.65
2023-09-11T07:50:42.005Z,10.70
2023-09-11T07:53:27.783Z,12.20
2023-09-11T07:56:14.534Z,9.90
2023-09-11T07:59:01.609Z,12.95
2023-09-11T08:01:46.905Z,13.93
2023-09-11T08:04:33.371Z,10.05
2023-09-11T08:07:18.826Z,12.00
2023-09-11T08:10:07.321Z,13.02
2023-09-11T08:12:52.624Z,10.02
2023-09-11T08:15:38.493Z,8.63
2023-09-11T08:18:24.191Z,11.93
2023-09-11T08:21:10.080Z,11.40
2023-09-11T08:23:55.972Z,12.57
2023-09-11T08:26:44.175Z,10.75
2023-09-11T08:29:29.894Z,9.85
2023-09-11T08:32:15.601Z,11.15
2023-09-11T08:35:04.692Z,11.63
2023-09-11T08:37:50.128Z,12.18
2023-09-11T08:40:38.583Z,10.02
2023-09-11T08:43:27.018Z,12.23
2023-09-11T08:46:18.956Z,10.35
2023-09-11T08:49:09.016Z,13.00
2023-09-11T08:51:55.277Z,10.85
2023-09-11T08:54:46.788Z,9.65
2023-09-11T08:57:34.595Z,10.48
2023-09-11T09:00:21.236Z,11.32
2023-09-11T09:03:08.487Z,10.18
2023-09-11T09:06:02.042Z,9.65
2023-09-11T09:08:47.756Z,9.50
2023-09-11T09:11:34.406Z,8.70
2023-09-11T09:14:20.754Z,10.23
2023-09-11T09:17:06.735Z,9.10
2023-09-11T09:19:52.316Z,7.72
2023-09-11T09:22:57.555Z,6.75
2023-09-11T09:28:32.729Z,5.85
2023-09-11T09:31:26.480Z,5.10
2023-09-11T09:34:14.470Z,4.93
2023-09-11T09:37:00.552Z,6.40
2023-09-11T09:39:49.147Z,5.50
2023-09-11T09:42:44.396Z,6.57
2023-09-11T09:48:25.265Z,5.13
2023-09-11T09:51:12.610Z,5.03
2023-09-11T09:53:58.491Z,5.90
2023-09-11T09:56:43.760Z,5.18
2023-09-11T09:59:31.949Z,6.00
2023-09-11T10:02:33.253Z,5.47
2023-09-11T10:05:22.057Z,5.40
2023-09-11T10:08:08.013Z,5.00
2023-09-11T10:10:53.157Z,5.30
2023-09-11T10:13:44.170Z,4.45
2023-09-11T10:16:31.495Z,5.13
2023-09-11T10:19:19.525Z,5.28
2023-09-11T10:22:05.507Z,3.90
2023-09-11T10:24:51.417Z,5.15
2023-09-11T10:27:37.038Z,5.60
2023-09-11T10:30:25.860Z,5.30
2023-09-11T10:33:21.888Z,5.13
2023-09-11T10:36:14.889Z,5.50
2023-09-11T10:39:02.146Z,5.40
2023-09-11T10:41:48.082Z,5.68
2023-09-11T10:44:37.793Z,5.85
2023-09-11T10:47:24.393Z,5.10
2023-09-11T10:50:11.203Z,5.70
2023-09-11T10:52:57.738Z,6.20
2023-09-11T10:55:43.573Z,6.07
2023-09-11T10:58:30.093Z,5.95
2023-09-11T11:01:17.647Z,5.32
2023-09-11T11:04:07.747Z,5.47
2023-09-11T11:06:59.061Z,6.82
2023-09-11T11:09:50.039Z,7.07
2023-09-11T11:12:37.690Z,6.47
2023-09-11T11:15:29.055Z,5.72
2023-09-11T11:18:25.190Z,6.72
2023-09-11T11:21:11.484Z,6.93
2023-09-11T11:24:01.512Z,5.93
2023-09-11T11:26:47.043Z,7.57
2023-09-11T11:29:32.869Z,8.30
2023-09-11T11:32:21.254Z,6.88
2023-09-11T11:35:09.243Z,7.70
2023-09-11T11:37:55.721Z,8.43
2023-09-11T11:40:42.474Z,7.82
2023-09-11T11:43:28.516Z,8.07
2023-09-11T11:46:16.844Z,7.78
2023-09-11T11:49:02.390Z,9.77
2023-09-11T11:51:48.415Z,8.63
2023-09-11T11:54:36.145Z,9.23
2023-09-11T11:57:22.549Z,11.18
2023-09-11T12:00:12.732Z,9.55
2023-09-11T12:03:09.528Z,12.30
2023-09-11T12:05:56.906Z,12.70
2023-09-11T12:08:43.558Z,12.00
2023-09-11T12:11:30.364Z,9.93
2023-09-11T12:14:17.095Z,10.10
2023-09-11T12:17:03.525Z,9.65
2023-09-11T12:19:51.213Z,10.95
2023-09-11T12:22:38.760Z,12.27
2023-09-11T12:25:25.877Z,9.20
2023-09-11T12:28:12.723Z,8.32
2023-09-11T12:30:58.441Z,8.90
2023-09-11T12:33:44.272Z,13.90
2023-09-11T12:36:30.518Z,7.85
2023-09-11T12:39:15.993Z,9.70
2023-09-11T12:42:01.566Z,13.30
2023-09-11T12:44:48.517Z,10.50
2023-09-11T12:47:34.347Z,10.25
2023-09-11T12:50:21.459Z,8.85
2023-09-11T12:53:11.131Z,12.50
2023-09-11T12:55:56.574Z,12.13
2023-09-11T12:58:43.353Z,10.45
2023-09-11T13:01:33.147Z,9.75
2023-09-11T13:04:23.336Z,9.43
2023-09-11T13:07:09.293Z,10.93
2023-09-11T13:09:54.994Z,11.85
2023-09-11T13:12:40.480Z,10.23
2023-09-11T13:15:31.925Z,12.77
2023-09-11T13:18:18.241Z,10.38
2023-09-11T13:21:04.506Z,10.32
2023-09-11T13:23:50.100Z,10.02
2023-09-11T13:26:36.118Z,9.38
2023-09-11T13:29:24.724Z,12.35
2023-09-11T13:32:12.795Z,12.00
2023-09-11T13:34:58.234Z,8.40
2023-09-11T13:37:46.920Z,9.10
2023-09-11T13:40:32.812Z,9.73
2023-09-11T13:43:21.668Z,8.13
2023-09-11T13:46:10.302Z,9.00
2023-09-11T13:48:56.239Z,9.05
2023-09-11T13:51:41.401Z,8.93
2023-09-11T13:54:29.617Z,8.90
2023-09-11T13:57:15.634Z,9.60
2023-09-11T14:00:01.332Z,8.63
2023-09-11T14:02:48.385Z,7.25
2023-09-11T14:05:45.325Z,9.82
2023-09-11T14:08:33.361Z,9.45
2023-09-11T14:11:19.093Z,9.90
2023-09-11T14:14:04.216Z,6.97
2023-09-11T14:16:49.776Z,7.57
2023-09-11T14:19:37.928Z,7.93
2023-09-11T14:22:26.589Z,8.88
2023-09-11T14:25:12.337Z,8.43
2023-09-11T14:27:57.770Z,9.15
2023-09-11T14:30:43.929Z,8.23
2023-09-11T14:33:29.743Z,7.07
2023-09-11T14:36:15.630Z,8.70
2023-09-11T14:39:05.422Z,7.97
2023-09-11T14:41:52.626Z,7.20
2023-09-11T14:44:41.370Z,6.53
2023-09-11T14:47:30.427Z,6.38
2023-09-11T14:50:15.941Z,7.70
2023-09-11T14:53:01.619Z,7.60
2023-09-11T14:55:48.108Z,8.48
2023-09-11T14:58:33.756Z,8.70
2023-09-11T15:01:22.933Z,10.77
2023-09-11T15:04:20.476Z,8.48
2023-09-11T15:07:16.477Z,10.63
2023-09-11T15:10:02.074Z,7.95
2023-09-11T15:12:47.553Z,8.38
2023-09-11T15:15:33.938Z,8.07
2023-09-11T15:18:21.315Z,7.75
2023-09-11T15:21:08.421Z,11.48
2023-09-11T15:23:54.205Z,10.20
2023-09-11T15:26:39.893Z,9.57
2023-09-11T15:29:25.884Z,8.05
2023-09-11T15:32:13.189Z,10.02
2023-09-11T15:34:59.041Z,9.45
2023-09-11T15:37:44.501Z,11.05
2023-09-11T15:40:30.761Z,11.38
2023-09-11T15:43:16.391Z,8.40
2023-09-11T15:46:03.852Z,9.75
2023-09-11T15:48:55.563Z,10.15
2023-09-11T15:51:43.139Z,9.10
2023-09-11T15:54:28.667Z,9.30
2023-09-11T15:57:14.126Z,11.00
2023-09-11T15:59:59.925Z,8.93
2023-09-11T16:02:45.397Z,8.05
2023-09-11T16:05:30.785Z,8.43
2023-09-11T16:08:19.918Z,8.23
2023-09-11T16:11:08.550Z,8.25
2023-09-11T16:13:54.257Z,8.10
2023-09-11T16:16:42.428Z,6.25
2023-09-11T16:19:28.460Z,5.82
2023-09-11T16:22:14.086Z,5.03
2023-09-11T16:24:59.460Z,4.00
2023-09-11T16:27:44.953Z,6.57
2023-09-11T16:30:30.196Z,7.40
2023-09-11T16:33:16.011Z,6.00
2023-09-11T16:36:02.558Z,6.28
2023-09-11T16:38:48.114Z,5.90
2023-09-11T16:41:33.788Z,5.80
2023-09-11T16:44:19.225Z,6.07
2023-09-11T16:47:05.221Z,5.20
2023-09-11T16:49:50.652Z,4.32
2023-09-11T16:52:37.517Z,4.30
2023-09-11T16:55:23.800Z,5.07
2023-09-11T16:58:09.072Z,4.97
2023-09-11T17:01:13.309Z,6.10
2023-09-11T17:03:59.332Z,7.03
2023-09-11T17:06:45.719Z,5.85
2023-09-11T17:09:33.531Z,8.15
2023-09-11T17:12:19.479Z,9.13
2023-09-11T17:15:05.868Z,8.32
2023-09-11T17:18:02.573Z,8.10
2023-09-11T17:20:51.688Z,7.97
2023-09-11T17:23:40.698Z,8.95
2023-09-11T17:26:26.543Z,7.80
2023-09-11T17:29:12.269Z,9.38
2023-09-11T17:31:57.863Z,8.90
2023-09-11T17:34:43.647Z,7.70
2023-09-11T17:37:32.201Z,8.63
2023-09-11T17:40:18.143Z,8.52
2023-09-11T17:43:06.460Z,8.90
2023-09-11T17:45:52.038Z,8.65
2023-09-11T17:48:37.579Z,9.52
2023-09-11T17:51:23.426Z,8.70
2023-09-11T17:54:08.860Z,8.80
2023-09-11T17:57:00.322Z,7.30
2023-09-11T17:59:46.609Z,6.57
2023-09-11T18:02:32.629Z,6.68
2023-09-11T18:05:18.523Z,5.82
2023-09-11T18:08:05.280Z,5.15
2023-09-11T18:10:50.446Z,4.07
2023-09-11T18:13:36.270Z,4.18
2023-09-11T18:16:21.878Z,5.13
2023-09-11T18:19:07.390Z,4.07
2023-09-11T18:21:52.832Z,4.35
2023-09-11T18:24:38.941Z,3.88
2023-09-11T18:27:24.295Z,4.63
2023-09-11T18:30:11.992Z,4.72
2023-09-11T18:32:57.820Z,4.05
2023-09-11T18:35:43.326Z,4.30
2023-09-11T18:38:31.503Z,4.97
2023-09-11T18:41:17.464Z,4.57
2023-09-11T18:44:02.953Z,5.03
2023-09-11T18:46:51.085Z,6.30
2023-09-11T18:49:36.565Z,8.07
2023-09-11T18:52:22.201Z,6.97
2023-09-11T18:55:08.757Z,6.90
2023-09-11T18:57:54.018Z,6.95
2023-09-11T19:00:40.627Z,7.55
2023-09-11T19:03:26.110Z,9.38
2023-09-11T19:06:11.519Z,9.25
2023-09-11T19:08:58.735Z,10.27
2023-09-11T19:11:44.508Z,10.43
2023-09-11T19:14:32.852Z,10.45
2023-09-11T19:17:18.167Z,13.65
2023-09-11T19:20:04.717Z,12.23
2023-09-11T19:22:50.190Z,10.10
2023-09-11T19:25:38.152Z,11.85
2023-09-11T19:28:23.882Z,13.02
2023-09-11T19:31:09.763Z,13.95
2023-09-11T19:33:55.534Z,12.40
2023-09-11T19:36:40.949Z,13.50
2023-09-11T19:39:26.467Z,12.75
2023-09-11T19:42:16.986Z,11.02
2023-09-11T19:45:03.949Z,10.77
2023-09-11T19:47:49.641Z,10.60
2023-09-11T19:50:35.119Z,9.20
2023-09-11T19:53:20.487Z,11.50
2023-09-11T19:56:06.660Z,11.00
2023-09-11T19:58:55.353Z,9.00
2023-09-11T20:01:40.856Z,9.18
2023-09-11T20:04:26.750Z,10.10
2023-09-11T20:07:12.669Z,10.60
2023-09-11T20:10:00.036Z,10.43
2023-09-11T20:12:45.687Z,9.55
2023-09-11T20:15:32.311Z,13.63
2023-09-11T20:18:17.826Z,13.57
2023-09-11T20:21:03.382Z,14.65
2023-09-11T20:23:52.455Z,16.48
2023-09-11T20:26:40.834Z,16.38
2023-09-11T20:29:26.752Z,16.35
2023-09-11T20:32:15.037Z,17.80
2023-09-11T20:35:03.605Z,19.00
2023-09-11T20:37:53.693Z,17.25
2023-09-11T20:40:39.408Z,21.92
2023-09-11T20:43:24.728Z,19.30
2023-09-11T20:46:10.700Z,15.55
2023-09-11T20:48:56.075Z,19.23
2023-09-11T20:51:41.511Z,20.65
2023-09-11T20:54:27.635Z,16.42
2023-09-11T20:57:14.373Z,18.33
2023-09-11T20:59:59.960Z,13.88
2023-09-11T21:02:45.677Z,11.40
2023-09-11T21:05:34.230Z,15.27
2023-09-11T21:08:19.878Z,19.75
2023-09-11T21:11:05.351Z,16.00
2023-09-11T21:13:50.870Z,13.88
2023-09-11T21:16:36.446Z,13.82
2023-09-11T21:19:21.689Z,10.43
2023-09-11T21:22:07.427Z,11.48
2023-09-11T21:24:52.917Z,25.10
2023-09-11T21:27:38.785Z,27.13
2023-09-11T21:30:24.859Z,21.30
2023-09-11T21:33:10.856Z,16.45
2023-09-11T21:35:56.662Z,10.38
2023-09-11T21:38:42.717Z,14.85
2023-09-11T21:41:28.648Z,22.23
2023-09-11T21:44:16.393Z,25.80
2023-09-11T21:47:01.873Z,23.02
2023-09-11T21:49:47.080Z,17.13
2023-09-11T21:52:33.224Z,13.02
2023-09-11T21:55:23.830Z,11.40
2023-09-11T21:58:09.319Z,8.98
2023-09-11T22:00:54.872Z,7.07
2023-09-11T22:03:40.830Z,5.38
2023-09-11T22:06:27.235Z,5.72
2023-09-11T22:09:13.065Z,4.82
2023-09-11T22:11:59.062Z,3.78
2023-09-11T22:14:46.311Z,3.78
2023-09-11T22:17:32.431Z,3.00
2023-09-11T22:20:17.926Z,2.53
2023-09-11T22:23:03.672Z,2.30
2023-09-11T22:25:49.485Z,2.25
2023-09-11T22:28:34.971Z,2.38
2023-09-11T22:31:20.576Z,2.55
2023-09-11T22:34:06.235Z,1.95
2023-09-11T22:36:51.762Z,4.30
2023-09-11T22:39:40.020Z,8.40
2023-09-11T22:42:25.796Z,11.82
2023-09-11T22:45:11.625Z,10.82
2023-09-11T22:47:57.545Z,10.13
2023-09-11T22:50:43.275Z,12.48
2023-09-11T22:53:28.876Z,13.40
2023-09-11T22:56:14.559Z,12.02
2023-09-11T22:59:01.821Z,9.88
2023-09-11T23:01:47.432Z,8.40
2023-09-11T23:04:32.786Z,10.95
2023-09-11T23:07:18.318Z,12.15
2023-09-11T23:10:07.044Z,10.35
2023-09-11T23:12:55.021Z,12.32
2023-09-11T23:15:43.406Z,17.60
2023-09-11T23:18:29.251Z,14.73
2023-09-11T23:21:15.008Z,11.32
2023-09-11T23:24:12.391Z,10.75
2023-09-11T23:27:00.987Z,8.18
2023-09-11T23:29:46.030Z,8.45
2023-09-11T23:32:31.866Z,7.65
2023-09-11T23:35:17.116Z,5.88
2023-09-11T23:38:03.123Z,4.90
2023-09-11T23:40:48.819Z,4.90
2023-09-11T23:43:36.160Z,3.88
2023-09-11T23:46:21.836Z,4.85
2023-09-11T23:49:11.457Z,5.85
2023-09-11T23:51:58.358Z,8.88
2023-09-11T23:54:46.742Z,13.93
2023-09-11T23:57:32.101Z,12.73
